Alamota, Kansas
Current Conditions -  °F | °C
As of 8:54 PM on Friday 19 Dec 2014 (Local Time) from KGCK Reporting Station
Haze Haze  
Wind Chill: 22°   Ceiling: Unl
Heat Index: 29°   Visibility: 6mi
Dew Point: 28°   Wind: 7mph
Humidity: 96%   Direction: 190°S
Pressure: 30.1"   Gusts: NA
Location:  38.4812°N, 100.393°W
Report Text: KGCK 200254Z 19006KT 6SM BR CLR M02/M02 A3010 RMK AO2 SLP213 T10171022 50001
Loading
Personal Weather Stations






























Interactive Weather Map New forecast layout! Learn more

10-Day Weather Forecast

Advertisements
Track Severe Weather on mobile